createdAt,value
2023-05-14T00:00:55.501Z,99691.62
2023-05-14T00:02:00.739Z,99688.94
2023-05-14T00:03:06.538Z,99695.31
2023-05-14T00:04:12.344Z,99690.77
2023-05-14T00:05:17.587Z,99688.8
2023-05-14T00:06:22.758Z,99693.05
2023-05-14T00:07:27.954Z,99692.63
2023-05-14T00:08:33.127Z,99689.43
2023-05-14T00:09:38.340Z,99689.95
2023-05-14T00:10:43.549Z,99693.67
2023-05-14T00:11:48.711Z,99693.56
2023-05-14T00:12:53.939Z,99697.7
2023-05-14T00:13:59.107Z,99692.75
2023-05-14T00:15:04.394Z,99692.41
2023-05-14T00:16:09.659Z,99693.86
2023-05-14T00:17:15.011Z,99689.5
2023-05-14T00:18:20.178Z,99687.98
2023-05-14T00:19:25.367Z,99690.14
2023-05-14T00:20:30.604Z,99688.5
2023-05-14T00:21:35.852Z,99692.41
2023-05-14T00:22:41.002Z,99691.59
2023-05-14T00:23:46.184Z,99691.18
2023-05-14T00:24:51.351Z,99693.86
2023-05-14T00:25:56.560Z,99684.66
2023-05-14T00:27:01.723Z,99685.59
2023-05-14T00:28:06.900Z,99692.52
2023-05-14T00:29:12.056Z,99691.7
2023-05-14T00:30:17.274Z,99693.12
2023-05-14T00:31:22.474Z,99693.53
2023-05-14T00:32:27.778Z,99696.14
2023-05-14T00:33:33.045Z,99691.03
2023-05-14T00:34:38.209Z,99691.37
2023-05-14T00:35:43.368Z,99686.3
2023-05-14T00:36:48.532Z,99691.37
2023-05-14T00:37:53.723Z,99684.25
2023-05-14T00:38:58.959Z,99693.23
2023-05-14T00:40:04.147Z,99685.67
2023-05-14T00:41:09.336Z,99697.14
2023-05-14T00:42:14.532Z,99694.02
2023-05-14T00:43:19.734Z,99695.06
2023-05-14T00:44:25.041Z,99691.33
2023-05-14T00:45:30.250Z,99696.84
2023-05-14T00:46:35.481Z,99695.58
2023-05-14T00:47:40.784Z,99695.28
2023-05-14T00:48:46.129Z,99690.51
2023-05-14T00:49:51.320Z,99690.51
2023-05-14T00:50:56.541Z,99694.13
2023-05-14T00:52:01.706Z,99696.29
2023-05-14T00:53:07.394Z,99696.7
2023-05-14T00:54:12.578Z,99692.97
2023-05-14T00:55:17.786Z,99692.04
2023-05-14T00:56:22.966Z,99695.47
2023-05-14T00:57:28.120Z,99702.36
2023-05-14T00:58:33.303Z,99694.91
2023-05-14T00:59:38.466Z,99697.92
2023-05-14T01:00:43.753Z,99703.11
2023-05-14T01:01:48.978Z,99700.09
2023-05-14T01:02:54.459Z,99703.37
2023-05-14T01:04:00.283Z,99702.36
2023-05-14T01:05:05.672Z,99703.3
2023-05-14T01:06:10.881Z,99702.47
2023-05-14T01:07:16.178Z,99699.56
2023-05-14T01:08:21.347Z,99707.4
2023-05-14T01:09:26.615Z,99702.47
2023-05-14T01:10:31.786Z,99701.2
2023-05-14T01:11:36.967Z,99703.48
2023-05-14T01:12:42.155Z,99697.19
2023-05-14T01:13:47.342Z,99698.52
2023-05-14T01:14:52.527Z,99702.33
2023-05-14T01:15:57.705Z,99696.96
2023-05-14T01:17:02.972Z,99700.91
2023-05-14T01:18:08.278Z,99693.53
2023-05-14T01:19:13.678Z,99700.39
2023-05-14T01:20:19.093Z,99703.59
2023-05-14T01:21:24.305Z,99696.22
2023-05-14T01:22:29.469Z,99692.41
2023-05-14T01:23:34.661Z,99702.44
2023-05-14T01:24:39.862Z,99695.5
2023-05-14T01:25:45.076Z,99699.01
2023-05-14T01:26:50.242Z,99703.78
2023-05-14T01:27:55.435Z,99695.5
2023-05-14T01:29:00.607Z,99698.9
2023-05-14T01:30:05.773Z,99694.58
2023-05-14T01:31:10.970Z,99699.01
2023-05-14T01:32:16.155Z,99699.12
2023-05-14T01:33:21.617Z,99701.28
2023-05-14T01:34:26.801Z,99697.55
2023-05-14T01:35:31.989Z,99704.97
2023-05-14T01:36:37.230Z,99704.89
2023-05-14T01:37:42.384Z,99700.95
2023-05-14T01:38:47.554Z,99701.05
2023-05-14T01:39:52.745Z,99705.41
2023-05-14T01:40:57.912Z,99698.56
2023-05-14T01:42:03.097Z,99701.66
2023-05-14T01:43:08.337Z,99700.02
2023-05-14T01:44:13.636Z,99702.81
2023-05-14T01:45:18.818Z,99699.72
2023-05-14T01:46:24.108Z,99698.97
2023-05-14T01:47:29.452Z,99699.72
2023-05-14T01:48:34.692Z,99690.62
2023-05-14T01:49:39.886Z,99693.3
2023-05-14T01:50:45.078Z,99699.3
2023-05-14T01:51:50.299Z,99700.23
2023-05-14T01:52:55.458Z,99698.89
2023-05-14T01:54:00.916Z,99699.38
2023-05-14T01:55:06.170Z,99697.63
2023-05-14T01:56:11.391Z,99698.86
2023-05-14T01:57:16.571Z,99700.83
2023-05-14T01:58:21.798Z,99693.3
2023-05-14T01:59:26.971Z,99692.55
2023-05-14T02:00:32.151Z,99688.34
2023-05-14T02:01:37.485Z,99684.09
2023-05-14T02:02:42.801Z,99684.84
2023-05-14T02:03:48.068Z,99687.94
2023-05-14T02:04:53.341Z,99687.19
2023-05-14T02:05:58.505Z,99683.98
2023-05-14T02:07:03.743Z,99677.95
2023-05-14T02:08:08.918Z,99681.08
2023-05-14T02:09:14.091Z,99684.51
2023-05-14T02:10:19.256Z,99679.33
2023-05-14T02:11:24.919Z,99682.02
2023-05-14T02:12:30.109Z,99680.59
2023-05-14T02:13:35.331Z,99680.89
2023-05-14T02:14:40.501Z,99683.58
2023-05-14T02:15:45.774Z,99678.21
2023-05-14T02:16:51.025Z,99680.07
2023-05-14T02:17:56.314Z,99680.67
2023-05-14T02:19:01.827Z,99685.03
2023-05-14T02:20:07.104Z,99681.49
2023-05-14T02:21:12.278Z,99684.17
2023-05-14T02:22:17.458Z,99686.86
2023-05-14T02:23:40.809Z,99682.42
2023-05-14T02:24:46.714Z,99687.38
2023-05-14T02:25:51.868Z,99680.97
2023-05-14T02:26:57.016Z,99678.62
2023-05-14T02:28:02.177Z,99671.16
2023-05-14T02:29:07.334Z,99672.31
2023-05-14T02:30:12.902Z,99672.21
2023-05-14T02:31:18.184Z,99668.3
2023-05-14T02:32:23.654Z,99668.7
2023-05-14T02:33:29.200Z,99662.93
2023-05-14T02:34:34.541Z,99660.51
2023-05-14T02:35:39.746Z,99661.59
2023-05-14T02:36:44.905Z,99662.52
2023-05-14T02:37:50.071Z,99654.84
2023-05-14T02:38:55.250Z,99648.14
2023-05-14T02:40:00.421Z,99646.38
2023-05-14T02:41:05.670Z,99655.25
2023-05-14T02:42:10.862Z,99656.41
2023-05-14T02:43:16.043Z,99655.14
2023-05-14T02:44:21.256Z,99650.63
2023-05-14T02:45:26.453Z,99655.59
2023-05-14T02:46:31.732Z,99654.25
2023-05-14T02:47:39.291Z,99651.97
2023-05-14T02:48:44.569Z,99646.8
2023-05-14T02:49:49.738Z,99653.8
2023-05-14T02:50:55.039Z,99648.44
2023-05-14T02:52:00.247Z,99650
2023-05-14T02:53:05.502Z,99649.48
2023-05-14T02:54:10.717Z,99649.66
2023-05-14T02:55:15.912Z,99650.81
2023-05-14T02:56:21.092Z,99647.73
2023-05-14T02:57:26.313Z,99648.95
2023-05-14T02:58:31.537Z,99646.05
2023-05-14T02:59:37.079Z,99650.41
2023-05-14T03:00:43.757Z,99652.45
2023-05-14T03:01:50.453Z,99654.02
2023-05-14T03:02:57.106Z,99653.17
2023-05-14T03:04:03.070Z,99650.7
2023-05-14T03:05:08.243Z,99650.59
2023-05-14T03:06:13.438Z,99641.5
2023-05-14T03:07:18.666Z,99648.52
2023-05-14T03:08:23.865Z,99642.73
2023-05-14T03:09:29.041Z,99640.38
2023-05-14T03:10:34.241Z,99638.82
2023-05-14T03:11:39.427Z,99637.29
2023-05-14T03:12:44.643Z,99635.28
2023-05-14T03:13:49.858Z,99633.05
2023-05-14T03:14:55.105Z,99639.53
2023-05-14T03:16:00.307Z,99633.05
2023-05-14T03:17:05.592Z,99638.19
2023-05-14T03:18:10.889Z,99639.64
2023-05-14T03:19:16.288Z,99634.05
2023-05-14T03:20:21.813Z,99639.08
2023-05-14T03:21:27.491Z,99638.59
2023-05-14T03:22:32.663Z,99645.9
2023-05-14T03:23:37.840Z,99644.56
2023-05-14T03:24:43.021Z,99647.35
2023-05-14T03:25:48.193Z,99655.1
2023-05-14T03:26:53.330Z,99650.67
2023-05-14T03:27:58.506Z,99653.77
2023-05-14T03:29:03.696Z,99650.26
2023-05-14T03:30:08.937Z,99653.77
2023-05-14T03:31:14.264Z,99656.96
2023-05-14T03:32:19.710Z,99644.23
2023-05-14T03:33:24.923Z,99648.47
2023-05-14T03:34:30.136Z,99653.95
2023-05-14T03:35:35.313Z,99655.7
2023-05-14T03:36:40.493Z,99658.38
2023-05-14T03:37:45.627Z,99657.05
2023-05-14T03:38:50.788Z,99661.17
2023-05-14T03:39:55.969Z,99653.62
2023-05-14T03:41:01.138Z,99656.38
2023-05-14T03:42:06.337Z,99646.69
2023-05-14T03:43:11.491Z,99649.78
2023-05-14T03:44:16.692Z,99647.58
2023-05-14T03:45:21.883Z,99655.44
2023-05-14T03:46:27.046Z,99648.84
2023-05-14T03:47:32.404Z,99651.01
2023-05-14T03:48:37.845Z,99644.72
2023-05-14T03:49:43.084Z,99642.96
2023-05-14T03:50:48.274Z,99637.89
2023-05-14T03:51:53.435Z,99631.27
2023-05-14T03:52:58.603Z,99640.16
2023-05-14T03:54:03.758Z,99644.9
2023-05-14T03:55:08.934Z,99644.59
2023-05-14T03:56:14.122Z,99642.66
2023-05-14T03:57:19.290Z,99640.77
2023-05-14T03:58:24.469Z,99637.3
2023-05-14T03:59:29.651Z,99629.1
2023-05-14T04:00:34.821Z,99629.73
2023-05-14T04:01:40.016Z,99627.35
2023-05-14T04:02:45.432Z,99626.75
2023-05-14T04:03:51.107Z,99619.41
2023-05-14T04:04:56.735Z,99627.98
2023-05-14T04:06:01.928Z,99631.59
2023-05-14T04:07:07.161Z,99631.19
2023-05-14T04:08:12.353Z,99630.44
2023-05-14T04:09:17.830Z,99631.59
2023-05-14T04:10:23.373Z,99631.04
2023-05-14T04:11:28.946Z,99635.51
2023-05-14T04:12:34.132Z,99631.56
2023-05-14T04:13:39.346Z,99633.45
2023-05-14T04:14:44.560Z,99634.05
2023-05-14T04:15:49.816Z,99636.73
2023-05-14T04:16:55.186Z,99635.58
2023-05-14T04:18:00.488Z,99633.64
2023-05-14T04:19:06.037Z,99633.42
2023-05-14T04:20:11.518Z,99633.64
2023-05-14T04:21:16.682Z,99635.92
2023-05-14T04:22:21.897Z,99640.43
2023-05-14T04:23:27.100Z,99635.51
2023-05-14T04:24:32.329Z,99642.92
2023-05-14T04:25:37.474Z,99647.24
2023-05-14T04:26:42.644Z,99644.97
2023-05-14T04:27:47.831Z,99637.11
2023-05-14T04:28:53.051Z,99641.47
2023-05-14T04:29:58.233Z,99637.03
2023-05-14T04:31:03.464Z,99631.45
2023-05-14T04:32:08.981Z,99631.86
2023-05-14T04:33:14.178Z,99636.21
2023-05-14T04:34:19.362Z,99633.61
2023-05-14T04:35:26.484Z,99642.4
2023-05-14T04:36:31.666Z,99636.7
2023-05-14T04:37:36.822Z,99639.49
2023-05-14T04:38:42.006Z,99642.48
2023-05-14T04:39:47.195Z,99640.31
2023-05-14T04:40:52.392Z,99639.49
2023-05-14T04:41:57.666Z,99643.19
2023-05-14T04:43:02.844Z,99637.11
2023-05-14T04:44:08.027Z,99641.43
2023-05-14T04:45:13.277Z,99642.87
2023-05-14T04:46:18.623Z,99637.11
2023-05-14T04:47:24.088Z,99640.91
2023-05-14T04:48:29.288Z,99640.27
2023-05-14T04:49:34.461Z,99642.77
2023-05-14T04:50:39.642Z,99637.52
2023-05-14T04:51:44.873Z,99644.94
2023-05-14T04:52:50.069Z,99642.77
2023-05-14T04:53:55.265Z,99639.27
2023-05-14T04:55:00.469Z,99639.97
2023-05-14T04:56:05.668Z,99636.17
2023-05-14T04:57:10.854Z,99633.49
2023-05-14T04:58:16.060Z,99636.77
2023-05-14T04:59:21.251Z,99635.95
2023-05-14T05:00:27.041Z,99633.91
2023-05-14T05:01:32.564Z,99634.09
2023-05-14T05:02:38.008Z,99635.24
2023-05-14T05:03:43.536Z,99639.34
2023-05-14T05:04:48.762Z,99634.5
2023-05-14T05:05:53.930Z,99633.68
2023-05-14T05:06:59.126Z,99641.72
2023-05-14T05:08:04.396Z,99634.5
2023-05-14T05:09:09.598Z,99639.05
2023-05-14T05:10:14.815Z,99634.28
2023-05-14T05:11:19.982Z,99634.69
2023-05-14T05:12:25.198Z,99632.22
2023-05-14T05:13:30.354Z,99632.86
2023-05-14T05:14:35.551Z,99628.39
2023-05-14T05:15:40.779Z,99628.39
2023-05-14T05:16:45.985Z,99623.33
2023-05-14T05:17:51.243Z,99624.17
2023-05-14T05:18:56.765Z,99622.2
2023-05-14T05:20:02.109Z,99626.23
2023-05-14T05:21:07.320Z,99627.57
2023-05-14T05:22:12.540Z,99626
2023-05-14T05:23:17.774Z,99622.09
2023-05-14T05:24:22.945Z,99622.73
2023-05-14T05:25:28.124Z,99619.3
2023-05-14T05:26:33.312Z,99624.59
2023-05-14T05:27:38.471Z,99621.05
2023-05-14T05:28:43.656Z,99616.62
2023-05-14T05:29:48.842Z,99622.39
2023-05-14T05:30:54.235Z,99616.2
2023-05-14T05:31:59.471Z,99612.7
2023-05-14T05:33:04.898Z,99605.89
2023-05-14T05:34:10.272Z,99605.59
2023-05-14T05:35:15.548Z,99606.82
2023-05-14T05:36:20.819Z,99602.98
2023-05-14T05:37:25.986Z,99603.73
2023-05-14T05:38:31.179Z,99608.68
2023-05-14T05:39:36.653Z,99604.14
2023-05-14T05:40:41.822Z,99602.8
2023-05-14T05:41:47.086Z,99604.25
2023-05-14T05:42:52.283Z,99607.64
2023-05-14T05:43:57.437Z,99604.84
2023-05-14T05:45:02.636Z,99609.09
2023-05-14T05:46:07.859Z,99599.48
2023-05-14T05:47:13.072Z,99603.39
2023-05-14T05:48:18.295Z,99602.91
2023-05-14T05:49:23.473Z,99601.83
2023-05-14T05:50:28.716Z,99600.93
2023-05-14T05:51:33.909Z,99602.05
2023-05-14T05:52:39.082Z,99607.86
2023-05-14T05:53:44.264Z,99609.28
2023-05-14T05:54:49.437Z,99604.73
2023-05-14T05:55:54.631Z,99608.98
2023-05-14T05:56:59.790Z,99612.78
2023-05-14T05:58:04.994Z,99601.83
2023-05-14T05:59:10.222Z,99604.02
2023-05-14T06:00:15.434Z,99606.19
2023-05-14T06:01:20.646Z,99607.01
2023-05-14T06:02:26.080Z,99606.08
2023-05-14T06:03:31.407Z,99597.21
2023-05-14T06:04:36.579Z,99600.72
2023-05-14T06:05:42.025Z,99595.57
2023-05-14T06:06:47.479Z,99589.69
2023-05-14T06:07:52.646Z,99588.12
2023-05-14T06:08:57.819Z,99589.69
2023-05-14T06:10:03.003Z,99590.09
2023-05-14T06:11:08.188Z,99592.77
2023-05-14T06:12:13.416Z,99588.94
2023-05-14T06:13:18.608Z,99592.77
2023-05-14T06:14:23.803Z,99592.37
2023-05-14T06:15:28.998Z,99593.89
2023-05-14T06:16:34.278Z,99592.45
2023-05-14T06:17:39.627Z,99588.75
2023-05-14T06:18:45.036Z,99590.8
2023-05-14T06:19:50.304Z,99590.8
2023-05-14T06:20:55.530Z,99592.89
2023-05-14T06:22:00.740Z,99593.89
2023-05-14T06:23:05.977Z,99596.91
2023-05-14T06:24:11.164Z,99587.83
2023-05-14T06:25:16.365Z,99587.19
2023-05-14T06:26:21.537Z,99591.33
2023-05-14T06:27:26.732Z,99592.37
2023-05-14T06:28:31.903Z,99591.1
2023-05-14T06:29:37.069Z,99589.77
2023-05-14T06:30:42.285Z,99594.53
2023-05-14T06:31:47.507Z,99589.69
2023-05-14T06:32:52.869Z,99585.14
2023-05-14T06:33:58.423Z,99585.25
2023-05-14T06:35:03.626Z,99582.57
2023-05-14T06:36:08.792Z,99583.39
2023-05-14T06:37:13.971Z,99578.62
2023-05-14T06:38:19.146Z,99576.69
2023-05-14T06:39:24.330Z,99581.64
2023-05-14T06:40:29.556Z,99578.32
2023-05-14T06:41:34.738Z,99572.77
2023-05-14T06:42:39.915Z,99572.25
2023-05-14T06:43:45.076Z,99570.91
2023-05-14T06:44:50.257Z,99573.19
2023-05-14T06:45:55.471Z,99569.23
2023-05-14T06:47:00.699Z,99566.48
2023-05-14T06:48:06.102Z,99564.73
2023-05-14T06:49:11.702Z,99572.77
2023-05-14T06:50:17.035Z,99569.65
2023-05-14T06:51:22.235Z,99573.67
2023-05-14T06:52:27.386Z,99570.28
2023-05-14T06:53:32.546Z,99569.45
2023-05-14T06:54:37.764Z,99571.84
2023-05-14T06:55:43.021Z,99571.92
2023-05-14T06:56:48.230Z,99569.45
2023-05-14T06:57:53.413Z,99568.83
2023-05-14T06:58:58.577Z,99568.12
2023-05-14T07:00:05.100Z,99563.98
2023-05-14T07:01:10.433Z,99569.16
2023-05-14T07:02:15.685Z,99568.53
2023-05-14T07:03:20.864Z,99570.36
2023-05-14T07:04:26.247Z,99575.02
2023-05-14T07:05:31.528Z,99581.72
2023-05-14T07:06:36.723Z,99571.62
2023-05-14T07:07:41.969Z,99575.31
2023-05-14T07:08:47.156Z,99576.8
2023-05-14T07:09:52.411Z,99573.89
2023-05-14T07:10:57.840Z,99559.26
2023-05-14T07:12:03.131Z,99565.1
2023-05-14T07:13:08.307Z,99565.44
2023-05-14T07:14:13.447Z,99561.6
2023-05-14T07:15:18.632Z,99563.23
2023-05-14T07:16:23.827Z,99565.52
2023-05-14T07:17:29.416Z,99573.19
2023-05-14T07:18:34.842Z,99578.14
2023-05-14T07:19:40.179Z,99577.91
2023-05-14T07:20:45.341Z,99579.97
2023-05-14T07:21:50.510Z,99581
2023-05-14T07:22:55.725Z,99588.86
2023-05-14T07:24:00.912Z,99585.95
2023-05-14T07:25:06.119Z,99590.61
2023-05-14T07:26:11.303Z,99584.92
2023-05-14T07:27:16.519Z,99585.11
2023-05-14T07:28:21.731Z,99592.89
2023-05-14T07:29:26.894Z,99581
2023-05-14T07:30:32.104Z,99583.28
2023-05-14T07:31:37.761Z,99587.41
2023-05-14T07:32:43.525Z,99590.09
2023-05-14T07:33:49.133Z,99580.59
2023-05-14T07:34:54.385Z,99576.8
2023-05-14T07:35:59.600Z,99573.67
2023-05-14T07:37:04.801Z,99565.84
2023-05-14T07:38:09.990Z,99562.64
2023-05-14T07:39:15.180Z,99574
2023-05-14T07:40:20.409Z,99573.48
2023-05-14T07:41:25.839Z,99558.1
2023-05-14T07:42:38.246Z,99562.34
2023-05-14T07:43:43.432Z,99561.19
2023-05-14T07:44:48.636Z,99557.91
2023-05-14T07:45:53.811Z,99557.28
2023-05-14T07:46:59.035Z,99560.08
2023-05-14T07:48:04.477Z,99552.44
2023-05-14T07:49:10.092Z,99544.69
2023-05-14T07:50:15.422Z,99548.94
2023-05-14T07:51:20.629Z,99548.94
2023-05-14T07:52:25.820Z,99537.28
2023-05-14T07:53:31.044Z,99541.41
2023-05-14T07:54:36.224Z,99537.2
2023-05-14T07:55:41.442Z,99539.25
2023-05-14T07:56:46.632Z,99540.81
2023-05-14T07:57:51.853Z,99542.98
2023-05-14T07:58:57.036Z,99537.8
2023-05-14T08:00:02.196Z,99536.68
2023-05-14T08:01:07.441Z,99536.16
2023-05-14T08:02:12.720Z,99534.41
2023-05-14T08:03:18.161Z,99532.33
2023-05-14T08:04:23.567Z,99537.09
2023-05-14T08:05:29.017Z,99533.06
2023-05-14T08:06:34.228Z,99532.14
2023-05-14T08:07:39.431Z,99530.31
2023-05-14T08:08:44.602Z,99522.45
2023-05-14T08:09:49.830Z,99524.02
2023-05-14T08:10:55.136Z,99524.02
2023-05-14T08:12:00.446Z,99524.84
2023-05-14T08:13:05.623Z,99514.52
2023-05-14T08:14:10.773Z,99515.56
2023-05-14T08:15:15.946Z,99517.09
2023-05-14T08:16:21.192Z,99516.59
2023-05-14T08:17:26.556Z,99519.17
2023-05-14T08:18:31.980Z,99518.77
2023-05-14T08:19:37.353Z,99517.83
2023-05-14T08:20:42.555Z,99515.15
2023-05-14T08:21:47.735Z,99514.22
2023-05-14T08:22:52.917Z,99509.98
2023-05-14T08:23:58.117Z,99505.02
2023-05-14T08:25:03.366Z,99509.7
2023-05-14T08:26:08.645Z,99499.88
2023-05-14T08:27:13.831Z,99501
2023-05-14T08:28:19.038Z,99496.97
2023-05-14T08:29:24.227Z,99495.97
2023-05-14T08:30:29.862Z,99501.73
2023-05-14T08:31:35.157Z,99500.73
2023-05-14T08:32:40.530Z,99503.3
2023-05-14T08:33:45.802Z,99500.81
2023-05-14T08:34:51.032Z,99505.38
2023-05-14T08:35:56.379Z,99504.75
2023-05-14T08:37:01.548Z,99499.2
2023-05-14T08:38:06.744Z,99497.11
2023-05-14T08:39:12.006Z,99503.22
2023-05-14T08:40:17.180Z,99494.84
2023-05-14T08:41:22.381Z,99495.99
2023-05-14T08:42:27.559Z,99492.05
2023-05-14T08:43:32.766Z,99496.92
2023-05-14T08:44:37.992Z,99495.47
2023-05-14T08:45:43.183Z,99462.88
2023-05-14T08:46:48.346Z,99496.3
2023-05-14T08:47:53.672Z,99486.91
2023-05-14T08:48:59.221Z,99487.84
2023-05-14T08:50:04.737Z,99492.27
2023-05-14T08:51:09.920Z,99489.09
2023-05-14T08:52:15.102Z,99496.22
2023-05-14T08:53:20.260Z,99489.52
2023-05-14T08:54:25.443Z,99493.94
2023-05-14T08:55:30.638Z,99491.05
2023-05-14T08:56:35.828Z,99493.42
2023-05-14T08:57:41.010Z,99491.37
2023-05-14T08:58:46.182Z,99493.34
2023-05-14T08:59:51.358Z,99492
2023-05-14T09:00:56.580Z,99487.45
2023-05-14T09:02:01.996Z,99488.47
2023-05-14T09:03:07.618Z,99489.32
2023-05-14T09:04:13.240Z,99488.58
2023-05-14T09:05:18.558Z,99490.14
2023-05-14T09:06:23.791Z,99486.2
2023-05-14T09:07:28.987Z,99479.82
2023-05-14T09:08:34.212Z,99476.4
2023-05-14T09:09:39.406Z,99480.42
2023-05-14T09:10:44.600Z,99475.61
2023-05-14T09:11:49.870Z,99479.41
2023-05-14T09:12:55.141Z,99479.62
2023-05-14T09:14:00.598Z,99474.16
2023-05-14T09:15:05.780Z,99476.76
2023-05-14T09:16:11.179Z,99468.48
2023-05-14T09:17:16.541Z,99474.67
2023-05-14T09:18:22.047Z,99472.13
2023-05-14T09:19:27.285Z,99474.81
2023-05-14T09:20:32.488Z,99471.12
2023-05-14T09:21:37.722Z,99469.27
2023-05-14T09:22:42.923Z,99466.5
2023-05-14T09:23:48.165Z,99471.34
2023-05-14T09:24:53.466Z,99464.11
2023-05-14T09:25:58.862Z,99460.5
2023-05-14T09:27:04.058Z,99459.08
2023-05-14T09:28:09.479Z,99446.1
2023-05-14T09:29:14.901Z,99454.53
2023-05-14T09:30:20.186Z,99459.78
2023-05-14T09:31:25.977Z,99453
2023-05-14T09:32:31.249Z,99457.43
2023-05-14T09:33:36.607Z,99456.09
2023-05-14T09:34:41.785Z,99447.52
2023-05-14T09:35:47.107Z,99441.64
2023-05-14T09:36:52.300Z,99444.23
2023-05-14T09:37:57.563Z,99443.91
2023-05-14T09:39:02.799Z,99450.75
2023-05-14T09:40:08.075Z,99453.44
2023-05-14T09:41:13.360Z,99452.39
2023-05-14T09:42:18.632Z,99447.44
2023-05-14T09:43:23.900Z,99445.39
2023-05-14T09:44:29.064Z,99439.5
2023-05-14T09:45:34.406Z,99439.5
2023-05-14T09:46:39.848Z,99438.9
2023-05-14T09:47:45.557Z,99435.09
2023-05-14T09:48:50.969Z,99427.94
2023-05-14T09:49:56.153Z,99430.73
2023-05-14T09:51:04.057Z,99430.13
2023-05-14T09:52:10.306Z,99435.72
2023-05-14T09:53:15.618Z,99424.98
2023-05-14T09:54:20.828Z,99437.47
2023-05-14T09:55:26.300Z,99434.38
2023-05-14T09:56:31.816Z,99431.28
2023-05-14T09:57:37.240Z,99433.33
2023-05-14T09:58:43.957Z,99425.8
2023-05-14T09:59:49.189Z,99423.12
2023-05-14T10:00:54.502Z,99421.67
2023-05-14T10:01:59.752Z,99417.64
2023-05-14T10:03:05.028Z,99426.34
2023-05-14T10:04:10.429Z,99415.5
2023-05-14T10:05:15.794Z,99420.13
2023-05-14T10:06:21.081Z,99422.09
2023-05-14T10:07:26.313Z,99422.09
2023-05-14T10:08:31.642Z,99420.67
2023-05-14T10:09:37.060Z,99415.8
2023-05-14T10:10:42.335Z,99416.13
2023-05-14T10:11:47.523Z,99414.67
2023-05-14T10:12:52.711Z,99412.43
2023-05-14T10:13:58.285Z,99411.77
2023-05-14T10:15:03.725Z,99409.23
2023-05-14T10:16:11.665Z,99403.05
2023-05-14T10:17:17.015Z,99407.06
2023-05-14T10:18:22.573Z,99393.44
2023-05-14T10:19:28.036Z,99402.41
2023-05-14T10:20:33.357Z,99399.02
2023-05-14T10:21:38.549Z,99396.12
2023-05-14T10:22:43.748Z,99388.77
2023-05-14T10:23:48.961Z,99394.25
2023-05-14T10:24:54.127Z,99387.95
2023-05-14T10:25:59.326Z,99385.38
2023-05-14T10:27:04.491Z,99382.47
2023-05-14T10:28:09.685Z,99378.04
2023-05-14T10:29:14.856Z,99376.7
2023-05-14T10:30:20.054Z,99378.04
2023-05-14T10:31:25.679Z,99374.42
2023-05-14T10:32:30.997Z,99372.27
2023-05-14T10:33:36.234Z,99367.83
2023-05-14T10:34:41.405Z,99367.72
2023-05-14T10:35:46.590Z,99362.98
2023-05-14T10:36:51.794Z,99366.38
2023-05-14T10:37:56.958Z,99371.25
2023-05-14T10:39:02.142Z,99365.47
2023-05-14T10:40:07.532Z,99359.17
2023-05-14T10:41:12.730Z,99365.88
2023-05-14T10:42:17.905Z,99361.34
2023-05-14T10:43:23.097Z,99354.63
2023-05-14T10:44:28.332Z,99354.63
2023-05-14T10:45:33.569Z,99352.87
2023-05-14T10:46:39.024Z,99350.27
2023-05-14T10:47:44.411Z,99346.25
2023-05-14T10:48:49.795Z,99347.51
2023-05-14T10:49:55.184Z,99344.3
2023-05-14T10:51:00.550Z,99341.62
2023-05-14T10:52:05.850Z,99340.88
2023-05-14T10:53:11.025Z,99335.63
2023-05-14T10:54:16.199Z,99340.69
2023-05-14T10:55:21.357Z,99340.61
2023-05-14T10:56:26.535Z,99338
2023-05-14T10:57:31.711Z,99330.59
2023-05-14T10:58:36.927Z,99332.14
2023-05-14T10:59:42.110Z,99322.42
2023-05-14T11:00:47.298Z,99324.09
2023-05-14T11:01:52.626Z,99331.63
2023-05-14T11:02:58.079Z,99329.87
2023-05-14T11:04:03.543Z,99327.59
2023-05-14T11:05:08.826Z,99330.36
2023-05-14T11:06:14.028Z,99328.94
2023-05-14T11:07:19.276Z,99320.27
2023-05-14T11:08:29.338Z,99319.02
2023-05-14T11:09:35.695Z,99317.27
2023-05-14T11:10:41.180Z,99310.05
2023-05-14T11:11:46.617Z,99303.53
2023-05-14T11:12:51.790Z,99302.92
2023-05-14T11:13:56.993Z,99299.09
2023-05-14T11:15:02.171Z,99302.52
2023-05-14T11:16:23.900Z,99294.88
2023-05-14T11:17:39.869Z,99299.52
2023-05-14T11:18:45.284Z,99292.92
2023-05-14T11:19:52.466Z,99292.41
2023-05-14T11:20:57.786Z,99292.61
2023-05-14T11:22:02.958Z,99297.45
2023-05-14T11:23:08.236Z,99299.32
2023-05-14T11:24:13.400Z,99305.63
2023-05-14T11:25:18.593Z,99305.31
2023-05-14T11:26:23.856Z,99299.13
2023-05-14T11:27:29.168Z,99300.99
2023-05-14T11:28:34.431Z,99300.99
2023-05-14T11:29:39.616Z,99302.55
2023-05-14T11:30:44.803Z,99301.5
2023-05-14T11:31:50.061Z,99300.16
2023-05-14T11:32:55.380Z,99296.95
2023-05-14T11:34:00.609Z,99298.2
2023-05-14T11:35:05.831Z,99297.59
2023-05-14T11:36:11.091Z,99302.23
2023-05-14T11:37:16.266Z,99297.69
2023-05-14T11:38:21.492Z,99291.38
2023-05-14T11:39:26.676Z,99289.11
2023-05-14T11:40:31.886Z,99290.86
2023-05-14T11:41:37.155Z,99293.05
2023-05-14T11:42:42.332Z,99287.16
2023-05-14T11:43:47.516Z,99290.86
2023-05-14T11:44:52.713Z,99293.98
2023-05-14T11:45:58.335Z,99291.92
2023-05-14T11:47:03.656Z,99291.38
2023-05-14T11:48:09.094Z,99297.17
2023-05-14T11:49:14.462Z,99287.88
2023-05-14T11:50:19.678Z,99292.13
2023-05-14T11:51:25.031Z,99287.05
2023-05-14T11:52:30.298Z,99284.8
2023-05-14T11:53:35.683Z,99287.48
2023-05-14T11:54:41.024Z,99270.96
2023-05-14T11:55:47.698Z,99281.17
2023-05-14T11:56:53.141Z,99277.05
2023-05-14T11:57:58.516Z,99273.03
2023-05-14T11:59:03.745Z,99274.57
2023-05-14T12:00:09.226Z,99274.78
2023-05-14T12:01:14.676Z,99268.89
2023-05-14T12:02:20.008Z,99267.05
2023-05-14T12:03:26.340Z,99269.73
2023-05-14T12:04:32.073Z,99262.5
2023-05-14T12:05:37.471Z,99258.48
2023-05-14T12:06:42.887Z,99261.98
2023-05-14T12:07:48.134Z,99254.98
2023-05-14T12:08:53.334Z,99261.98
2023-05-14T12:09:58.626Z,99249.38
2023-05-14T12:11:06.768Z,99253.84
2023-05-14T12:12:12.073Z,99243.52
2023-05-14T12:13:18.754Z,99247.22
2023-05-14T12:14:24.056Z,99245.87
2023-05-14T12:15:29.242Z,99235.75
2023-05-14T12:16:38.308Z,99240.6
2023-05-14T12:17:43.861Z,99235.67
2023-05-14T12:18:49.178Z,99225.34
2023-05-14T12:19:54.665Z,99231.32
2023-05-14T12:21:00.052Z,99228.44
2023-05-14T12:22:05.413Z,99213.15
2023-05-14T12:23:10.671Z,99229.17
2023-05-14T12:24:15.889Z,99223.8
2023-05-14T12:25:21.069Z,99217.38
2023-05-14T12:26:26.265Z,99217.99
2023-05-14T12:27:31.526Z,99220.91
2023-05-14T12:28:39.627Z,99219.55
2023-05-14T12:29:44.839Z,99216.05
2023-05-14T12:30:50.046Z,99212.22
2023-05-14T12:31:55.568Z,99211.48
2023-05-14T12:33:01.042Z,99206.35
2023-05-14T12:34:06.406Z,99213.69
2023-05-14T12:35:11.680Z,99205.42
2023-05-14T12:36:23.686Z,99208.2
2023-05-14T12:37:31.846Z,99212.22
2023-05-14T12:38:37.039Z,99202.83
2023-05-14T12:39:42.207Z,99204.98
2023-05-14T12:40:47.401Z,99206.33
2023-05-14T12:41:52.626Z,99200.95
2023-05-14T12:42:58.359Z,99203.88
2023-05-14T12:44:03.527Z,99200.95
2023-05-14T12:45:09.011Z,99202.71
2023-05-14T12:46:14.316Z,99206.45
2023-05-14T12:47:19.748Z,99205.52
2023-05-14T12:48:25.245Z,99195.7
2023-05-14T12:49:30.454Z,99193.44
2023-05-14T12:50:38.697Z,99194.48
2023-05-14T12:51:43.909Z,99193.95